Time;durP1;ratioP1;P1;durP2;ratioP2;P2;SDS_P1;SDS_P2;PMS_P1;PMS_P2;Temp;Humidity;BMP_temperature;BMP_pressure;BME280_temperature;BME280_humidity;BME280_pressure;Samples;Min_cycle;Max_cycle;Signal;HPM_P1;HPM_P2
2021/07/05 00:07:49;;;;;;;10.4;5.2;;;;;;;14.07;100;97941.31;;;;
2021/07/05 00:17:48;;;;;;;16.9;6.9;;;;;;;13.98;100;97948.81;;;;
2021/07/05 00:27:47;;;;;;;7.4;5.3;;;;;;;13.81;100;97957.23;;;;
2021/07/05 00:37:46;;;;;;;11.1;5.6;;;;;;;13.69;100;97953.75;;;;
2021/07/05 00:47:45;;;;;;;8.4;6.2;;;;;;;13.49;100;97950.88;;;;
2021/07/05 00:57:44;;;;;;;9.4;6.8;;;;;;;13.59;100;97941.48;;;;
2021/07/05 01:07:43;;;;;;;6.9;5.7;;;;;;;13.57;100;97935.64;;;;
2021/07/05 01:17:42;;;;;;;8.6;5.7;;;;;;;13.41;100;97930.13;;;;
2021/07/05 01:27:41;;;;;;;7.3;5.1;;;;;;;13.36;100;97926.89;;;;
2021/07/05 01:37:41;;;;;;;8.4;6.2;;;;;;;13.2;100;97943.02;;;;
2021/07/05 01:47:40;;;;;;;9.8;7.7;;;;;;;13.17;100;97948.31;;;;
2021/07/05 01:57:39;;;;;;;11;7;;;;;;;13.03;100;97951.34;;;;
2021/07/05 02:07:38;;;;;;;9.3;6.1;;;;;;;12.89;100;97957.09;;;;
2021/07/05 02:17:37;;;;;;;10.3;5.7;;;;;;;13.16;100;97955.64;;;;
2021/07/05 02:27:36;;;;;;;8.9;6.8;;;;;;;13.29;100;97959.14;;;;
2021/07/05 02:37:36;;;;;;;12;6.1;;;;;;;13.32;100;97970.08;;;;
2021/07/05 02:47:34;;;;;;;9.6;6.2;;;;;;;13.28;100;97969.17;;;;
2021/07/05 02:57:33;;;;;;;8;4.3;;;;;;;13.18;100;97972.34;;;;
2021/07/05 03:07:32;;;;;;;9.4;5.8;;;;;;;13.2;100;97988.22;;;;
2021/07/05 03:17:31;;;;;;;8.4;5.4;;;;;;;13.14;100;97984.17;;;;
2021/07/05 03:27:30;;;;;;;11.1;7.3;;;;;;;13.23;100;97988.34;;;;
2021/07/05 03:37:29;;;;;;;11.2;8.6;;;;;;;13.32;100;98001.77;;;;
2021/07/05 03:47:28;;;;;;;8.9;7.3;;;;;;;13.64;100;98008.16;;;;
2021/07/05 03:57:27;;;;;;;10.4;6.6;;;;;;;13.91;100;98020.97;;;;
2021/07/05 04:07:26;;;;;;;10.7;6.9;;;;;;;14.28;100;98027.05;;;;
2021/07/05 04:17:26;;;;;;;9.6;6;;;;;;;14.55;100;98024.35;;;;
2021/07/05 04:27:25;;;;;;;10;6.4;;;;;;;15.19;100;98022.49;;;;
2021/07/05 04:37:24;;;;;;;8.6;4.9;;;;;;;15.81;100;98021.63;;;;
2021/07/05 04:47:24;;;;;;;7.5;4.5;;;;;;;16.57;100;98026.33;;;;
2021/07/05 04:57:23;;;;;;;10.3;5.9;;;;;;;16.98;100;98039.13;;;;
2021/07/05 05:07:22;;;;;;;18.7;7.9;;;;;;;17.37;100;98039;;;;
2021/07/05 05:17:22;;;;;;;11.4;6.5;;;;;;;17.63;100;98030.89;;;;
2021/07/05 05:27:21;;;;;;;7.7;5.3;;;;;;;17.95;100;98047.68;;;;
2021/07/05 05:37:21;;;;;;;8.1;5.8;;;;;;;18.22;100;98051.17;;;;
2021/07/05 05:47:21;;;;;;;6.3;5.3;;;;;;;18.74;100;98048.32;;;;
2021/07/05 05:57:27;;;;;;;7.4;5.9;;;;;;;19.06;100;98040.42;;;;
2021/07/05 06:07:20;;;;;;;8.5;5.8;;;;;;;19.59;100;98044.42;;;;
2021/07/05 06:17:20;;;;;;;17.1;6.1;;;;;;;20.12;100;98056.86;;;;
2021/07/05 06:27:20;;;;;;;10.7;6.7;;;;;;;20.47;100;98065.27;;;;
2021/07/05 06:37:20;;;;;;;14.3;7.5;;;;;;;20.71;100;98056.36;;;;
2021/07/05 06:47:20;;;;;;;13.3;9.2;;;;;;;20.95;100;98061.12;;;;
2021/07/05 06:57:29;;;;;;;11.4;7.7;;;;;;;21.48;100;98057.68;;;;
2021/07/05 07:07:20;;;;;;;11.5;7.7;;;;;;;21.78;100;98073.71;;;;
2021/07/05 07:17:23;;;;;;;12.2;7.1;;;;;;;22.1;100;98063.5;;;;
2021/07/05 07:27:21;;;;;;;10.3;6.1;;;;;;;22.36;100;98053.99;;;;
2021/07/05 07:37:21;;;;;;;13.5;7.5;;;;;;;22.71;100;98050.34;;;;
2021/07/05 07:47:21;;;;;;;10.5;7.5;;;;;;;23;100;98038.02;;;;
2021/07/05 07:57:22;;;;;;;12;7.6;;;;;;;23.38;100;98034.2;;;;
2021/07/05 08:07:22;;;;;;;9.4;6.8;;;;;;;23.69;97.06934;98040.63;;;;
2021/07/05 08:17:23;;;;;;;8.4;5;;;;;;;24.04;98.02539;98040.28;;;;
2021/07/05 08:27:23;;;;;;;10.4;6.2;;;;;;;24.05;92.33398;98030.81;;;;
2021/07/05 08:37:23;;;;;;;9;5.3;;;;;;;24.37;86.37793;98035.2;;;;
2021/07/05 08:47:24;;;;;;;20.6;5.5;;;;;;;24.83;89.76563;98032.67;;;;
2021/07/05 08:57:28;;;;;;;7.8;4.5;;;;;;;25.06;82.98438;98029.17;;;;
2021/07/05 09:07:25;;;;;;;7.9;4.6;;;;;;;25.32;75.2207;98027.6;;;;
2021/07/05 09:17:26;;;;;;;7.9;4.3;;;;;;;25.51;71.70117;98037.98;;;;
2021/07/05 09:27:33;;;;;;;9.1;3.5;;;;;;;25.78;63.80371;98040.66;;;;
2021/07/05 09:37:29;;;;;;;5.1;3.2;;;;;;;25.87;65.09375;98044.42;;;;
2021/07/05 09:47:28;;;;;;;13.4;5.2;;;;;;;25.86;68.29102;98053.15;;;;
2021/07/05 09:57:29;;;;;;;7.2;4.5;;;;;;;26.04;72.23047;98046.08;;;;
2021/07/05 10:07:30;;;;;;;8.6;4.9;;;;;;;25.78;69.05176;98041.45;;;;
2021/07/05 10:17:30;;;;;;;7.1;4.9;;;;;;;26.09;70.99707;98028.24;;;;
2021/07/05 10:27:31;;;;;;;6.9;4.5;;;;;;;26.62;65.28418;98032.73;;;;
2021/07/05 10:37:32;;;;;;;6.7;4.7;;;;;;;26.83;68.49707;98025.98;;;;
2021/07/05 10:47:33;;;;;;;6.5;4.5;;;;;;;27.11;69.89941;98035.63;;;;
2021/07/05 10:57:34;;;;;;;6.7;4.1;;;;;;;26.51;65.98438;98032.17;;;;
2021/07/05 11:07:35;;;;;;;7.7;4.3;;;;;;;27.3;66.75781;98020.93;;;;
2021/07/05 11:17:37;;;;;;;10.9;4.7;;;;;;;27.46;65.42871;98015.41;;;;
2021/07/05 11:27:37;;;;;;;6.6;4.4;;;;;;;27.88;57.75684;98016.3;;;;
2021/07/05 11:37:39;;;;;;;7.1;3.9;;;;;;;27.75;57.11523;98026.55;;;;
2021/07/05 11:47:42;;;;;;;6.4;4;;;;;;;27.93;60.07617;98013.8;;;;
2021/07/05 11:57:45;;;;;;;7.4;4.8;;;;;;;28.24;60.81348;98016.93;;;;
2021/07/05 12:07:41;;;;;;;8.5;4.9;;;;;;;28.35;60.6748;98016.63;;;;
2021/07/05 12:17:42;;;;;;;7.6;5.4;;;;;;;28.18;61.97266;98007.61;;;;
2021/07/05 12:27:43;;;;;;;7.7;4.4;;;;;;;28.21;58.99121;98000.41;;;;
2021/07/05 12:37:44;;;;;;;5.2;3.9;;;;;;;28.6;59.99902;98008.34;;;;
2021/07/05 12:47:48;;;;;;;5.5;3.7;;;;;;;28.21;61.56348;98014.26;;;;
2021/07/05 12:57:49;;;;;;;8.9;4.9;;;;;;;28.69;59.21973;98016.84;;;;
2021/07/05 13:07:47;;;;;;;8.5;5.4;;;;;;;29.02;59.4043;98022.95;;;;
2021/07/05 13:17:48;;;;;;;6.6;3.9;;;;;;;29.06;58.30859;98031.16;;;;
2021/07/05 13:27:50;;;;;;;7;4.3;;;;;;;28.62;59.25684;98027.33;;;;
2021/07/05 13:37:51;;;;;;;7.5;4.4;;;;;;;28.56;60.49023;98024.33;;;;
2021/07/05 13:47:52;;;;;;;7.1;4.4;;;;;;;28.58;61.04785;98024.66;;;;
2021/07/05 13:57:53;;;;;;;6.9;4.6;;;;;;;28.96;62.26855;98024.73;;;;
2021/07/05 14:07:54;;;;;;;7.7;4.2;;;;;;;28.87;58.07227;98021.85;;;;
2021/07/05 14:17:57;;;;;;;8.5;4.8;;;;;;;29.75;58.7998;98030.09;;;;
2021/07/05 14:27:57;;;;;;;7;4.1;;;;;;;30.54;53.31934;98028.16;;;;
2021/07/05 14:37:58;;;;;;;6.2;4.8;;;;;;;30.19;55.33398;98024.64;;;;
2021/07/05 14:47:59;;;;;;;6.9;5.4;;;;;;;30.23;53.90137;98022.52;;;;
2021/07/05 14:58:01;;;;;;;6.5;4;;;;;;;30.33;53.05859;98027.69;;;;
2021/07/05 15:08:02;;;;;;;6.5;4.5;;;;;;;31.3;52.24121;98028.38;;;;
2021/07/05 15:18:03;;;;;;;5.7;4.9;;;;;;;33.24;48.15527;98024.6;;;;
2021/07/05 15:28:05;;;;;;;7.4;4.5;;;;;;;33.79;43.79883;98025.84;;;;
2021/07/05 15:38:07;;;;;;;5.5;3.8;;;;;;;34.81;42.07813;98030.88;;;;
2021/07/05 15:48:09;;;;;;;7.6;4.6;;;;;;;34.37;43.16895;98028.03;;;;
2021/07/05 15:58:11;;;;;;;5.6;3.6;;;;;;;35.07;40.78906;98039.43;;;;
2021/07/05 16:08:14;;;;;;;6.9;4.7;;;;;;;35.56;40.94141;98041.47;;;;
2021/07/05 16:18:15;;;;;;;7.5;4.3;;;;;;;35.18;39.41211;98050.07;;;;
2021/07/05 16:28:17;;;;;;;7.4;4.6;;;;;;;35.58;38.62598;98064.16;;;;
2021/07/05 16:38:20;;;;;;;9;5.8;;;;;;;33.79;40.51953;98059.39;;;;
2021/07/05 16:48:21;;;;;;;7.9;5.6;;;;;;;34.48;39.49707;98058.24;;;;
2021/07/05 16:58:23;;;;;;;11.8;7.5;;;;;;;34.04;41.30957;98057.36;;;;
2021/07/05 17:08:25;;;;;;;10.2;6.8;;;;;;;33.05;43.19922;98064.98;;;;
2021/07/05 17:18:27;;;;;;;7.4;5.2;;;;;;;30.25;47.48438;98070.09;;;;
2021/07/05 17:28:28;;;;;;;8.6;6.5;;;;;;;28.52;52.42188;98073.56;;;;
2021/07/05 17:38:32;;;;;;;10;6.1;;;;;;;27.23;55.98828;98081.97;;;;
2021/07/05 17:48:30;;;;;;;9.9;6.7;;;;;;;26.3;60.85938;98083.13;;;;
2021/07/05 17:58:31;;;;;;;8.6;5.2;;;;;;;25.82;62.68262;98104.88;;;;
2021/07/05 18:08:34;;;;;;;8.8;5.5;;;;;;;25.01;66.62109;98104.89;;;;
2021/07/05 18:18:32;;;;;;;10.9;5.7;;;;;;;24.42;70.99023;98114.66;;;;
2021/07/05 18:28:33;;;;;;;10.8;7.3;;;;;;;23.93;74.89844;98122.19;;;;
2021/07/05 18:38:33;;;;;;;10.5;7.5;;;;;;;23.49;78.08984;98135.92;;;;
2021/07/05 18:48:35;;;;;;;10.2;7.4;;;;;;;23.22;80.60645;98145.89;;;;
2021/07/05 18:58:33;;;;;;;12.8;7.5;;;;;;;22.96;83.05273;98161.72;;;;
2021/07/05 19:08:33;;;;;;;9.1;5.7;;;;;;;22.62;85.70801;98179.08;;;;
2021/07/05 19:18:34;;;;;;;13.7;8.3;;;;;;;22.47;86.84863;98183.82;;;;
2021/07/05 19:28:34;;;;;;;11.6;8.1;;;;;;;22.28;90.64453;98187;;;;
2021/07/05 19:38:34;;;;;;;11.4;6.7;;;;;;;21.95;93.34375;98201.91;;;;
2021/07/05 19:48:34;;;;;;;13.2;7.3;;;;;;;21.95;91.53613;98199.95;;;;
2021/07/05 19:58:34;;;;;;;9.3;6.8;;;;;;;21.77;94.55078;98207.34;;;;
2021/07/05 20:08:34;;;;;;;10.2;6.2;;;;;;;21.61;94.65527;98215.17;;;;
2021/07/05 20:18:34;;;;;;;11.5;7.3;;;;;;;21.47;95.40918;98229.64;;;;
2021/07/05 20:28:34;;;;;;;10;6.2;;;;;;;21.29;97.48633;98223.31;;;;
2021/07/05 20:38:34;;;;;;;9.5;7.3;;;;;;;21.08;98.37012;98223.2;;;;
2021/07/05 20:48:34;;;;;;;12.3;7.3;;;;;;;20.82;99.47168;98235.23;;;;
2021/07/05 20:58:34;;;;;;;10.1;7.3;;;;;;;20.69;100;98239.44;;;;
2021/07/05 21:08:34;;;;;;;11.4;6;;;;;;;20.61;100;98246.05;;;;
2021/07/05 21:18:34;;;;;;;10.9;6.5;;;;;;;20.41;100;98247.48;;;;
2021/07/05 21:28:33;;;;;;;12.8;8.9;;;;;;;20.24;100;98254.34;;;;
2021/07/05 21:38:33;;;;;;;11.4;8;;;;;;;20.1;100;98265.17;;;;
2021/07/05 21:48:33;;;;;;;11.3;9;;;;;;;20.03;100;98270.58;;;;
2021/07/05 21:58:33;;;;;;;8.4;7.1;;;;;;;19.86;100;98274.72;;;;
2021/07/05 22:08:32;;;;;;;13.8;7.6;;;;;;;19.59;100;98276.01;;;;
2021/07/05 22:18:32;;;;;;;10.7;8.5;;;;;;;19.53;100;98275.56;;;;
2021/07/05 22:28:32;;;;;;;13.4;9.4;;;;;;;19.29;100;98278.77;;;;
2021/07/05 22:38:32;;;;;;;10.3;7.7;;;;;;;19.07;100;98291.36;;;;
2021/07/05 22:48:31;;;;;;;9.1;7.9;;;;;;;18.85;100;98294.95;;;;
2021/07/05 22:58:31;;;;;;;15.4;6.7;;;;;;;18.67;100;98295.86;;;;
2021/07/05 23:08:30;;;;;;;10.4;7.2;;;;;;;18.43;100;98286.88;;;;
2021/07/05 23:18:30;;;;;;;9.2;6.3;;;;;;;18.25;100;98279.58;;;;
2021/07/05 23:28:29;;;;;;;8.1;5.1;;;;;;;18.13;100;98280.55;;;;
2021/07/05 23:38:30;;;;;;;9.4;5.7;;;;;;;17.9;100;98283.28;;;;
2021/07/05 23:48:28;;;;;;;7.2;5.2;;;;;;;17.79;100;98279.57;;;;
2021/07/05 23:58:28;;;;;;;7.7;4.7;;;;;;;17.76;100;98290.41;;;;
